This is the latest recevied weather packets stored in our database for station/object NQ9F. If no packets are shown the sender has not sent any weather packets the latest 10 day(s).
| Time | Temp. | Humidity | Pressure | Rain* | Wind** | Luminosity | Snow |
|---|---|---|---|---|---|---|---|
| 1777339353 | 28.89° C | 58% | 1007.9 hPa | 0 mm | - | 1 W/m² | - |
| 1777339051 | 28.89° C | 56% | 1008 hPa | 0 mm | - | 2 W/m² | - |
| 1777334510 | 32.22° C | 43% | 1008.1 hPa | 0 mm | - | 143 W/m² | - |
| 1777334206 | 32.78° C | 45% | 1008.1 hPa | 0 mm | - | 159 W/m² | - |
| 1777313911 | 30.56° C | 54% | 1008.9 hPa | 0 mm | - | 138 W/m² | - |
| 1777313306 | 30.56° C | 47% | 1008.9 hPa | 0 mm | - | 940 W/m² | - |
| 1777312698 | 30.56° C | 48% | 1009 hPa | 0 mm | - | 163 W/m² | - |
| 1777312092 | 30° C | 58% | 1008.8 hPa | 0 mm | - | 197 W/m² | - |
| 1777311486 | 30° C | 56% | 1009 hPa | 0 mm | - | 888 W/m² | - |
| 1777311183 | 30° C | 55% | 1008.9 hPa | 0 mm | - | 873 W/m² | - |
| 1777310881 | 30° C | 53% | 1009.2 hPa | 0 mm | - | 903 W/m² | - |
| 1777310579 | 30° C | 57% | 1008.9 hPa | 0 mm | - | 882 W/m² | - |
| 1777310276 | 29.44° C | 60% | 1009.1 hPa | 0 mm | - | 846 W/m² | - |
| 1777309973 | 29.44° C | 61% | 1009.2 hPa | 0 mm | - | 879 W/m² | - |
| 1777309671 | 29.44° C | 63% | 1009.1 hPa | 0 mm | - | 863 W/m² | - |
| 1777308458 | 29.44° C | 63% | 1009.1 hPa | 0 mm | - | 832 W/m² | - |
| 1777307850 | 28.89° C | 67% | 1009 hPa | 0 mm | - | 808 W/m² | - |
| 1777307548 | 28.33° C | 71% | 1008.8 hPa | 0 mm | - | 775 W/m² | - |
| 1777307244 | 28.33° C | 72% | 1008.7 hPa | 0 mm | - | 770 W/m² | - |
| 1777306335 | 27.78° C | 73% | 1008.7 hPa | 0 mm | - | 726 W/m² | - |
| 1777305423 | 27.78° C | 73% | 1008.5 hPa | 0 mm | - | 686 W/m² | - |
| 1777304510 | 27.78° C | 78% | 1008.5 hPa | 0 mm | - | 612 W/m² | - |
| 1777304207 | 26.67° C | 81% | 1008.3 hPa | 0 mm | - | 594 W/m² | - |
| 1777303904 | 26.67° C | 83% | 1008.3 hPa | 0 mm | - | 585 W/m² | - |
| 1777303600 | 26.67° C | 82% | 1008.5 hPa | 0 mm | - | 560 W/m² | - |
* Rain latest hour (hover to see other rain measurements)
** Current wind speed in m/s (hover to see current wind gust speed)